^^
Your Local Weather - Clay, NY Station Historical Data
Daily Summary for January 20, 2018 Units:  Metric    English   Both
« Previous Day
Next Day »
Daily Weekly Monthly Yearly Custom
  High: Low: Average:
Temperature: 7.3 °C -2.6 °C 3.6 °C
Dew Point: -1.7 °C -5.7 °C -3.5 °C
Humidity: 81% 52% 61%
Wind Speed: 11.3km/h 0km/h 4.5km/h
Wind Gust: 27.4km/h - -
Wind- - WSW
Pressure: 1016.1 hPa 1005.3 hPa -
Precipitation: 6.86 mm    
Historical Graphs
 
 
Tabular Data for January 20, 2018
Time Temperature Dew Point Pressure Wind Wind Speed Wind Gust Humidity Rainfall Rate (Hourly) solar
00:06 -2.6 °C -5.4 °C 1006.7 hPa SSW 1.6 km/h 8 km/h 81% 0 mm 0 W/m2
00:12 -1 °C -4.3 °C 1006.7 hPa SSW 1.6 km/h 4.8 km/h 78% 0 mm 0 W/m2
00:18 1.1 °C -3.8 °C 1006.3 hPa SSW 3.2 km/h 4.8 km/h 70% 0 mm 0 W/m2
00:23 1.9 °C -3.8 °C 1006.3 hPa SSW 3.2 km/h 6.4 km/h 66% 0 mm 0 W/m2
00:30 2.4 °C -3.9 °C 1006 hPa SSW 4.8 km/h 4.8 km/h 63% 0 mm 0 W/m2
00:36 2.6 °C -4.2 °C 1005.6 hPa SSW 4.8 km/h 4.8 km/h 61% 0 mm 0 W/m2
00:42 2.8 °C -4.2 °C 1006 hPa SSW 4.8 km/h 4.8 km/h 60% 0 mm 0 W/m2
00:48 2.9 °C -4.3 °C 1005.6 hPa SSE 4.8 km/h 4.8 km/h 59% 0 mm 0 W/m2
00:54 2.9 °C -4.6 °C 1005.6 hPa SSW 3.2 km/h 3.2 km/h 58% 0 mm 0 W/m2
01:00 2.8 °C -4.6 °C 1005.6 hPa South 4.8 km/h 4.8 km/h 58% 0 mm 0 W/m2
01:06 2.8 °C -4.6 °C 1005.6 hPa South 4.8 km/h 8 km/h 58% 0 mm 0 W/m2
01:12 2.9 °C -4.8 °C 1005.6 hPa SW 4.8 km/h 4.8 km/h 57% 0 mm 0 W/m2
01:18 3.2 °C -4.8 °C 1005.3 hPa South 4.8 km/h 11.3 km/h 56% 0 mm 0 W/m2
01:23 3.2 °C -4.8 °C 1005.3 hPa South 6.4 km/h 8 km/h 56% 0 mm 0 W/m2
01:29 3.1 °C -4.8 °C 1005.3 hPa South 4.8 km/h 6.4 km/h 56% 0 mm 0 W/m2
01:36 3.1 °C -4.8 °C 1005.3 hPa SSW 4.8 km/h 6.4 km/h 56% 0 mm 0 W/m2
01:42 3.2 °C -4.8 °C 1005.3 hPa SSW 4.8 km/h 6.4 km/h 56% 0 mm 0 W/m2
01:48 3.3 °C -4.9 °C 1005.6 hPa SSW 4.8 km/h 6.4 km/h 55% 0 mm 0 W/m2
01:53 3.3 °C -4.8 °C 1005.3 hPa South 4.8 km/h 8 km/h 55% 0 mm 0 W/m2
02:00 3.3 °C -4.9 °C 1005.3 hPa South 3.2 km/h 4.8 km/h 55% 0 mm 0 W/m2
02:05 3.3 °C -4.8 °C 1005.3 hPa SSW 4.8 km/h 6.4 km/h 55% 0 mm 0 W/m2
02:12 3.4 °C -4.8 °C 1005.6 hPa South 4.8 km/h 4.8 km/h 55% 0 mm 0 W/m2
02:18 3.4 °C -4.8 °C 1005.6 hPa SW 3.2 km/h 9.7 km/h 55% 0 mm 0 W/m2
02:23 3.3 °C -4.8 °C 1005.6 hPa SW 3.2 km/h 3.2 km/h 55% 0 mm 0 W/m2
02:29 3.3 °C -5.1 °C 1005.6 hPa South 3.2 km/h 6.4 km/h 54% 0 mm 0 W/m2
02:36 3.4 °C -5.1 °C 1006 hPa SSW 4.8 km/h 6.4 km/h 54% 0 mm 0 W/m2
02:42 3.3 °C -5.1 °C 1005.6 hPa SSW 4.8 km/h 9.7 km/h 54% 0 mm 0 W/m2
02:50 3.3 °C -5.3 °C 1005.6 hPa South 4.8 km/h 4.8 km/h 53% 0 mm 0 W/m2
02:55 3.3 °C -5.3 °C 1005.6 hPa South 6.4 km/h 11.3 km/h 53% 0 mm 0 W/m2
03:02 3.3 °C -5.4 °C 1005.6 hPa South 4.8 km/h 8 km/h 53% 0 mm 0 W/m2
03:08 3.2 °C -5.4 °C 1005.6 hPa SSW 4.8 km/h 9.7 km/h 53% 0 mm 0 W/m2
03:14 3.3 °C -5.4 °C 1005.6 hPa SW 4.8 km/h 6.4 km/h 53% 0 mm 0 W/m2
03:20 3.2 °C -5.4 °C 1005.3 hPa SW 6.4 km/h 6.4 km/h 53% 0 mm 0 W/m2
03:25 3.2 °C -5.4 °C 1005.3 hPa WSW 6.4 km/h 14.5 km/h 53% 0 mm 0 W/m2
03:32 3.1 °C -5.3 °C 1005.3 hPa South 4.8 km/h 6.4 km/h 54% 0 mm 0 W/m2
03:38 3.2 °C -5.5 °C 1005.3 hPa WSW 6.4 km/h 6.4 km/h 53% 0 mm 0 W/m2
03:44 3.1 °C -5.6 °C 1005.3 hPa SSW 6.4 km/h 12.9 km/h 53% 0 mm 0 W/m2
03:50 3.1 °C -5.4 °C 1005.3 hPa South 6.4 km/h 6.4 km/h 54% 0 mm 0 W/m2
03:55 3.2 °C -5.5 °C 1005.3 hPa SSW 6.4 km/h 9.7 km/h 53% 0 mm 0 W/m2
04:02 3.3 °C -5.4 °C 1005.3 hPa SW 6.4 km/h 9.7 km/h 53% 0 mm 0 W/m2
04:08 3.2 °C -5.4 °C 1005.3 hPa SSW 6.4 km/h 9.7 km/h 53% 0 mm 0 W/m2
04:14 3.1 °C -5.6 °C 1005.3 hPa SSW 6.4 km/h 6.4 km/h 53% 0 mm 0 W/m2
04:19 3.1 °C -5.4 °C 1005.3 hPa SW 4.8 km/h 4.8 km/h 54% 0 mm 0 W/m2
04:26 2.9 °C -5.5 °C 1005.3 hPa SW 4.8 km/h 8 km/h 54% 0 mm 0 W/m2
04:32 2.9 °C -5.5 °C 1005.3 hPa SW 6.4 km/h 6.4 km/h 54% 0 mm 0 W/m2
04:38 2.8 °C -5.6 °C 1005.6 hPa SW 4.8 km/h 8 km/h 54% 0 mm 0 W/m2
04:43 2.8 °C -5.6 °C 1005.3 hPa South 4.8 km/h 8 km/h 54% 0 mm 0 W/m2
04:49 2.7 °C -5.7 °C 1005.3 hPa SW 4.8 km/h 4.8 km/h 54% 0 mm 0 W/m2
04:56 2.6 °C -5.6 °C 1005.3 hPa SW 4.8 km/h 6.4 km/h 55% 0 mm 0 W/m2
05:02 2.7 °C -5.5 °C 1005.6 hPa South 4.8 km/h 4.8 km/h 55% 0 mm 0 W/m2
05:08 2.6 °C -5.6 °C 1005.6 hPa SSW 4.8 km/h 11.3 km/h 55% 0 mm 0 W/m2
05:13 2.6 °C -5.6 °C 1005.6 hPa South 4.8 km/h 4.8 km/h 55% 0 mm 0 W/m2
05:19 2.7 °C -5.5 °C 1005.6 hPa SSW 4.8 km/h 4.8 km/h 55% 0 mm 0 W/m2
05:26 2.5 °C -5.7 °C 1005.6 hPa WSW 3.2 km/h 4.8 km/h 55% 0 mm 0 W/m2
05:32 2.4 °C -5.7 °C 1005.6 hPa WSW 3.2 km/h 6.4 km/h 55% 0 mm 0 W/m2
05:38 2.4 °C -5.7 °C 1006 hPa WSW 3.2 km/h 6.4 km/h 55% 0 mm 0 W/m2
05:43 2.5 °C -5.7 °C 1006.3 hPa West 3.2 km/h 4.8 km/h 55% 0 mm 0 W/m2
05:49 2.5 °C -5.7 °C 1006 hPa SSW 4.8 km/h 4.8 km/h 55% 0 mm 0 W/m2
05:56 2.4 °C -5.7 °C 1006.3 hPa SSW 4.8 km/h 4.8 km/h 55% 0 mm 0 W/m2
06:02 2.3 °C -5.6 °C 1006.7 hPa SW 4.8 km/h 6.4 km/h 56% 0 mm 0 W/m2
06:08 2.3 °C -5.6 °C 1006.7 hPa SW 3.2 km/h 8 km/h 56% 0 mm 0 W/m2
06:14 2.3 °C -5.6 °C 1006.3 hPa SW 3.2 km/h 3.2 km/h 56% 0 mm 0 W/m2
06:20 2.3 °C -5.6 °C 1006.7 hPa SW 3.2 km/h 3.2 km/h 56% 0 mm 0 W/m2
06:25 2.2 °C -5.4 °C 1006.3 hPa SW 3.2 km/h 6.4 km/h 57% 0 mm 0 W/m2
06:32 2.3 °C -5.3 °C 1006.7 hPa WSW 4.8 km/h 4.8 km/h 57% 0 mm 0 W/m2
06:38 2.3 °C -5.3 °C 1006.7 hPa SSW 4.8 km/h 4.8 km/h 57% 0 mm 0 W/m2
06:44 2.4 °C -5.2 °C 1006.7 hPa WSW 4.8 km/h 11.3 km/h 57% 0 mm 0 W/m2
06:50 2.4 °C -5.3 °C 1007 hPa SW 3.2 km/h 3.2 km/h 57% 0 mm 0 W/m2
06:55 2.4 °C -5.3 °C 1007 hPa SSW 3.2 km/h 12.9 km/h 57% 0 mm 0 W/m2
07:02 2.4 °C -5.2 °C 1007 hPa SW 3.2 km/h 4.8 km/h 57% 0 mm 0 W/m2
07:08 2.4 °C -5.3 °C 1007 hPa WSW 3.2 km/h 6.4 km/h 57% 0 mm 0 W/m2
07:16 2.4 °C -5 °C 1007 hPa WSW 3.2 km/h 4.8 km/h 58% 0 mm 0 W/m2
07:22 2.7 °C -4.8 °C 1007.3 hPa SW 4.8 km/h 4.8 km/h 58% 0 mm 0 W/m2
07:28 2.7 °C -4.8 °C 1007.3 hPa West 3.2 km/h 4.8 km/h 58% 0 mm 0 W/m2
07:34 2.7 °C -4.8 °C 1007.3 hPa SW 4.8 km/h 4.8 km/h 58% 0 mm 0 W/m2
07:40 2.7 °C -4.8 °C 1007.3 hPa WSW 3.2 km/h 3.2 km/h 58% 0 mm 7 W/m2
07:45 2.7 °C -4.8 °C 1007.3 hPa SSW 3.2 km/h 6.4 km/h 58% 0 mm 11 W/m2
07:52 2.9 °C -4.6 °C 1007.3 hPa SW 4.8 km/h 14.5 km/h 58% 0 mm 14 W/m2
07:58 2.9 °C -4.5 °C 1007.7 hPa WSW 4.8 km/h 14.5 km/h 58% 0 mm 14 W/m2
08:04 3 °C -4.4 °C 1007.7 hPa WSW 4.8 km/h 6.4 km/h 58% 0 mm 21 W/m2
08:09 3.1 °C -4.4 °C 1007.7 hPa WSW 4.8 km/h 8 km/h 58% 0 mm 30 W/m2
08:16 3.3 °C -4.2 °C 1008 hPa WSW 6.4 km/h 9.7 km/h 58% 0 mm 42 W/m2
08:22 3.4 °C -4.1 °C 1008 hPa West 6.4 km/h 9.7 km/h 58% 0 mm 49 W/m2
08:28 3.6 °C -4.2 °C 1008 hPa West 6.4 km/h 9.7 km/h 57% 0 mm 74 W/m2
08:33 3.8 °C -3.9 °C 1008.4 hPa WNW 6.4 km/h 12.9 km/h 57% 0 mm 125 W/m2
08:39 3.9 °C -3.8 °C 1008.4 hPa SW 8 km/h 8 km/h 57% 0 mm 121 W/m2
08:46 4.1 °C -3.9 °C 1008.4 hPa SW 6.4 km/h 8 km/h 56% 0 mm 128 W/m2
08:52 4.2 °C -3.8 °C 1008.4 hPa West 6.4 km/h 8 km/h 56% 0 mm 121 W/m2
08:58 4.3 °C -3.7 °C 1008.7 hPa West 8 km/h 8 km/h 56% 0 mm 91 W/m2
09:06 4.3 °C -3.7 °C 1008.7 hPa WSW 8 km/h 8 km/h 56% 0 mm 128 W/m2
09:12 4.4 °C -3.6 °C 1008.7 hPa WSW 6.4 km/h 6.4 km/h 56% 0 mm 148 W/m2
09:18 4.5 °C -3.6 °C 1008.7 hPa WSW 6.4 km/h 11.3 km/h 56% 0 mm 169 W/m2
09:23 4.6 °C -3.5 °C 1008.7 hPa SW 8 km/h 27.4 km/h 56% 0 mm 183 W/m2
09:29 4.7 °C -3.4 °C 1009 hPa SW 8 km/h 12.9 km/h 56% 0 mm 214 W/m2
09:36 4.8 °C -3.4 °C 1009 hPa West 8 km/h 12.9 km/h 55% 0 mm 253 W/m2
09:42 5.1 °C -3.3 °C 1009 hPa WSW 6.4 km/h 6.4 km/h 55% 0 mm 221 W/m2
09:48 4.9 °C -3.2 °C 1009 hPa West 6.4 km/h 8 km/h 56% 0 mm 246 W/m2
09:54 4.9 °C -3.4 °C 1009 hPa WNW 6.4 km/h 12.9 km/h 55% 0 mm 186 W/m2
10:00 4.8 °C -3.5 °C 1009 hPa SW 8 km/h 17.7 km/h 55% 0 mm 176 W/m2
10:05 4.8 °C -3.2 °C 1009 hPa WNW 11.3 km/h 17.7 km/h 56% 0 mm 213 W/m2
10:12 4.9 °C -3.1 °C 1009 hPa WSW 8 km/h 9.7 km/h 56% 0 mm 315 W/m2
10:18 5.2 °C -3.2 °C 1009 hPa West 8 km/h 12.9 km/h 55% 0 mm 343 W/m2
10:23 5.4 °C -2.9 °C 1009 hPa WSW 8 km/h 8 km/h 55% 0 mm 330 W/m2
10:28 5.3 °C -3 °C 1009 hPa SW 8 km/h 12.9 km/h 55% 0 mm 355 W/m2
10:34 5.4 °C -2.9 °C 1009 hPa SW 9.7 km/h 9.7 km/h 55% 0 mm 376 W/m2
10:39 5.5 °C -2.8 °C 1009 hPa SW 9.7 km/h 9.7 km/h 55% 0 mm 373 W/m2
10:46 5.6 °C -3 °C 1009.4 hPa West 9.7 km/h 9.7 km/h 54% 0 mm 410 W/m2
10:52 5.6 °C -3 °C 1009.7 hPa WNW 9.7 km/h 9.7 km/h 54% 0 mm 387 W/m2
10:58 5.7 °C -2.9 °C 1009.7 hPa SSW 9.7 km/h 24.1 km/h 54% 0 mm 417 W/m2
11:03 5.8 °C -2.8 °C 1009.7 hPa WSW 9.7 km/h 19.3 km/h 54% 0 mm 408 W/m2
11:09 5.7 °C -2.9 °C 1009.4 hPa WNW 9.7 km/h 9.7 km/h 54% 0 mm 420 W/m2
11:16 5.7 °C -2.9 °C 1009.7 hPa SW 9.7 km/h 14.5 km/h 54% 0 mm 397 W/m2
11:22 5.8 °C -2.8 °C 1009.7 hPa West 9.7 km/h 9.7 km/h 54% 2.29 mm 427 W/m2
11:28 5.9 °C -2.7 °C 1009.7 hPa West 8 km/h 9.7 km/h 54% 2.79 mm 452 W/m2
11:33 5.9 °C -2.7 °C 1009.7 hPa West 9.7 km/h 17.7 km/h 54% 2.29 mm 424 W/m2
11:39 6.1 °C -2.5 °C 1009.7 hPa West 9.7 km/h 9.7 km/h 54% 3.3 mm 411 W/m2
11:46 6.1 °C -2.5 °C 1009.7 hPa WSW 8 km/h 11.3 km/h 54% 2.03 mm 454 W/m2
11:52 5.9 °C -2.7 °C 1009.7 hPa SW 9.7 km/h 9.7 km/h 54% 2.79 mm 483 W/m2
11:58 6.2 °C -2.4 °C 1009.7 hPa West 9.7 km/h 11.3 km/h 54% 2.29 mm 487 W/m2
12:03 6.2 °C -2.4 °C 1009.7 hPa WSW 8 km/h 11.3 km/h 54% 2.79 mm 487 W/m2
12:09 6.4 °C -2.5 °C 1009.7 hPa SW 8 km/h 11.3 km/h 53% 2.29 mm 499 W/m2
12:16 6.3 °C -2.6 °C 1009.7 hPa West 8 km/h 14.5 km/h 53% 2.79 mm 466 W/m2
12:22 6.6 °C -2.6 °C 1009.7 hPa West 6.4 km/h 9.7 km/h 52% 2.03 mm 469 W/m2
12:28 6.7 °C -2.2 °C 1009.7 hPa NW 6.4 km/h 9.7 km/h 53% 2.54 mm 485 W/m2
12:34 6.7 °C -2.2 °C 1009.7 hPa WSW 6.4 km/h 11.3 km/h 53% 2.54 mm 485 W/m2
12:40 6.8 °C -2.4 °C 1009.7 hPa NW 4.8 km/h 9.7 km/h 52% 1.78 mm 401 W/m2
12:45 6.6 °C -2.3 °C 1009.7 hPa West 6.4 km/h 12.9 km/h 53% 2.03 mm 410 W/m2
12:52 6.7 °C -2.2 °C 1009.7 hPa West 6.4 km/h 12.9 km/h 53% 2.03 mm 475 W/m2
12:58 6.6 °C -2.3 °C 1009.7 hPa West 8 km/h 12.9 km/h 53% 1.52 mm 461 W/m2
13:04 6.8 °C -2.2 °C 1009.7 hPa West 8 km/h 8 km/h 53% 1.78 mm 357 W/m2
13:10 6.9 °C -2 °C 1009.7 hPa SW 8 km/h 8 km/h 53% 1.78 mm 457 W/m2
13:15 7 °C -1.9 °C 1009.7 hPa West 6.4 km/h 14.5 km/h 53% 1.52 mm 455 W/m2
13:22 6.9 °C -2.1 °C 1009.7 hPa West 9.7 km/h 9.7 km/h 53% 1.52 mm 431 W/m2
13:28 6.9 °C -2 °C 1009.7 hPa West 8 km/h 9.7 km/h 53% 1.78 mm 434 W/m2
13:34 7.1 °C -1.9 °C 1009.7 hPa WSW 8 km/h 8 km/h 53% 1.52 mm 432 W/m2
13:40 6.9 °C -2 °C 1009.7 hPa NW 8 km/h 8 km/h 53% 1.02 mm 425 W/m2
13:45 6.9 °C -2.1 °C 1009.7 hPa WNW 8 km/h 12.9 km/h 53% 1.02 mm 420 W/m2
13:52 7 °C -1.9 °C 1009.7 hPa West 8 km/h 8 km/h 53% 1.02 mm 410 W/m2
13:58 7.1 °C -1.9 °C 1009.7 hPa West 6.4 km/h 9.7 km/h 53% 1.02 mm 399 W/m2
14:04 7 °C -1.9 °C 1010 hPa WNW 6.4 km/h 8 km/h 53% 1.02 mm 383 W/m2
14:10 6.9 °C -1.7 °C 1010 hPa WSW 6.4 km/h 6.4 km/h 54% 0 mm 374 W/m2
14:16 7.3 °C -1.9 °C 1010 hPa WSW 6.4 km/h 8 km/h 52% 0 mm 367 W/m2
14:22 7.1 °C -1.8 °C 1010 hPa West 4.8 km/h 6.4 km/h 53% 0 mm 357 W/m2
14:28 7.1 °C -1.9 °C 1010 hPa West 6.4 km/h 8 km/h 53% 0 mm 345 W/m2
14:34 6.9 °C -1.7 °C 1010 hPa West 6.4 km/h 11.3 km/h 54% 0 mm 345 W/m2
14:40 6.9 °C -2.1 °C 1010.4 hPa SW 8 km/h 8 km/h 53% 0 mm 322 W/m2
14:45 6.8 °C -1.8 °C 1010 hPa WSW 6.4 km/h 8 km/h 54% 0 mm 311 W/m2
14:52 6.9 °C -1.7 °C 1010.4 hPa WSW 4.8 km/h 6.4 km/h 54% 0 mm 299 W/m2
14:58 6.8 °C -1.8 °C 1010.4 hPa West 4.8 km/h 8 km/h 54% 0 mm 287 W/m2
15:04 6.7 °C -1.7 °C 1010.4 hPa WNW 6.4 km/h 12.9 km/h 55% 0 mm 274 W/m2
15:10 6.6 °C -1.8 °C 1010.4 hPa NW 6.4 km/h 6.4 km/h 55% 0 mm 260 W/m2
15:15 6.4 °C -1.9 °C 1010.7 hPa West 8 km/h 11.3 km/h 55% 0 mm 251 W/m2
15:22 6.4 °C -2 °C 1010.7 hPa WNW 8 km/h 11.3 km/h 55% 0 mm 239 W/m2
15:28 6.3 °C -1.8 °C 1010.7 hPa West 8 km/h 11.3 km/h 56% 0 mm 221 W/m2
15:34 6.3 °C -1.9 °C 1011.1 hPa WSW 6.4 km/h 8 km/h 56% 0 mm 207 W/m2
15:39 6.3 °C -1.9 °C 1010.7 hPa West 6.4 km/h 6.4 km/h 56% 0 mm 192 W/m2
15:46 6.2 °C -1.9 °C 1011.1 hPa West 6.4 km/h 6.4 km/h 56% 0 mm 179 W/m2
15:52 6.2 °C -1.7 °C 1011.1 hPa West 4.8 km/h 8 km/h 57% 0 mm 163 W/m2
15:58 6.2 °C -1.9 °C 1011.4 hPa West 3.2 km/h 8 km/h 56% 0 mm 148 W/m2
16:04 6.1 °C -2 °C 1011.4 hPa WSW 4.8 km/h 6.4 km/h 56% 0 mm 135 W/m2
16:10 6 °C -1.9 °C 1011.7 hPa West 4.8 km/h 4.8 km/h 57% 0 mm 113 W/m2
16:16 5.9 °C -1.9 °C 1011.7 hPa WSW 4.8 km/h 4.8 km/h 57% 0 mm 33 W/m2
16:22 5.8 °C -2.1 °C 1011.7 hPa WNW 3.2 km/h 6.4 km/h 57% 0 mm 30 W/m2
16:28 5.7 °C -1.9 °C 1012.1 hPa WSW 4.8 km/h 6.4 km/h 58% 0 mm 25 W/m2
16:33 5.5 °C -1.9 °C 1012.4 hPa West 4.8 km/h 4.8 km/h 59% 0 mm 19 W/m2
16:40 5.3 °C -1.8 °C 1012.4 hPa West 3.2 km/h 3.2 km/h 60% 0 mm 18 W/m2
16:46 5.2 °C -1.9 °C 1012.4 hPa WSW 1.6 km/h 3.2 km/h 60% 0 mm 12 W/m2
16:52 5.1 °C -2.1 °C 1012.4 hPa WSW 1.6 km/h 3.2 km/h 60% 0 mm 9 W/m2
16:58 4.9 °C -1.9 °C 1012.8 hPa WSW 1.6 km/h 4.8 km/h 61% 0 mm 5 W/m2
17:04 4.8 °C -2.1 °C 1012.8 hPa WSW 3.2 km/h 4.8 km/h 61% 0 mm 0 W/m2
17:10 4.7 °C -1.9 °C 1013.1 hPa WSW 1.6 km/h 1.6 km/h 62% 0 mm 0 W/m2
17:16 4.6 °C -2.1 °C 1013.1 hPa WSW 1.6 km/h 1.6 km/h 62% 0 mm 0 W/m2
17:22 4.4 °C -2 °C 1013.1 hPa Calm   1.6 km/h 63% 0 mm 0 W/m2
17:28 4.2 °C -2.3 °C 1013.1 hPa Calm   1.6 km/h 63% 0 mm 0 W/m2
17:34 3.9 °C -2.3 °C 1013.4 hPa Calm   3.2 km/h 64% 0 mm 0 W/m2
17:40 3.9 °C -2.1 °C 1013.4 hPa WSW 1.6 km/h 1.6 km/h 65% 0 mm 0 W/m2
17:46 3.9 °C -2.1 °C 1013.4 hPa WSW 1.6 km/h 4.8 km/h 65% 0 mm 0 W/m2
17:52 3.8 °C -2.2 °C 1013.8 hPa WSW 1.6 km/h 1.6 km/h 65% 0 mm 0 W/m2
17:58 3.7 °C -2.3 °C 1013.8 hPa Calm   1.6 km/h 65% 0 mm 0 W/m2
18:03 3.6 °C -2.2 °C 1013.8 hPa Calm     66% 0 mm 0 W/m2
18:10 3.4 °C -2.4 °C 1014.1 hPa Calm     66% 0 mm 0 W/m2
18:15 3.2 °C -2.4 °C 1014.1 hPa Calm     67% 0 mm 0 W/m2
18:22 3.2 °C -2.4 °C 1014.1 hPa WSW 1.6 km/h 1.6 km/h 67% 0 mm 0 W/m2
18:28 3.3 °C -2.2 °C 1014.1 hPa WSW 1.6 km/h 3.2 km/h 67% 0 mm 0 W/m2
18:34 3.4 °C -2.2 °C 1014.1 hPa WSW 1.6 km/h 1.6 km/h 67% 0 mm 0 W/m2
18:39 3.3 °C -2.2 °C 1014.1 hPa Calm     67% 0 mm 0 W/m2
18:46 3.2 °C -2.4 °C 1013.8 hPa Calm     67% 0 mm 0 W/m2
18:52 2.9 °C -2.6 °C 1013.8 hPa Calm     67% 0 mm 0 W/m2
18:58 2.7 °C -2.6 °C 1014.1 hPa Calm     68% 0 mm 0 W/m2
19:04 2.5 °C -2.8 °C 1014.4 hPa Calm     68% 0 mm 0 W/m2
19:09 2.3 °C -2.8 °C 1014.4 hPa Calm     69% 0 mm 0 W/m2
19:16 2 °C -2.9 °C 1014.4 hPa Calm     70% 0 mm 0 W/m2
19:22 1.8 °C -3.1 °C 1014.8 hPa Calm     70% 0 mm 0 W/m2
19:28 1.7 °C -3 °C 1014.8 hPa Calm     71% 0 mm 0 W/m2
19:33 1.6 °C -3.1 °C 1014.8 hPa Calm     71% 0 mm 0 W/m2
19:39 1.6 °C -2.9 °C 1014.8 hPa Calm     72% 0 mm 0 W/m2
19:46 1.4 °C -3.1 °C 1014.8 hPa Calm     72% 0 mm 0 W/m2
19:52 1.3 °C -3 °C 1014.8 hPa Calm     73% 0 mm 0 W/m2
19:58 1.1 °C -3.2 °C 1014.8 hPa Calm     73% 0 mm 0 W/m2
20:03 1.1 °C -3.2 °C 1014.8 hPa Calm     73% 0 mm 0 W/m2
20:09 1 °C -3.1 °C 1014.8 hPa Calm     74% 0 mm 0 W/m2
20:16 0.9 °C -3.2 °C 1015.1 hPa Calm     74% 0 mm 0 W/m2
20:22 0.9 °C -3.2 °C 1015.1 hPa Calm     74% 0 mm 0 W/m2
20:28 0.8 °C -3.2 °C 1015.1 hPa Calm     75% 0 mm 0 W/m2
20:33 0.6 °C -3.4 °C 1015.1 hPa Calm     75% 0 mm 0 W/m2
20:39 0.4 °C -3.6 °C 1015.1 hPa Calm     75% 0 mm 0 W/m2
20:46 0.2 °C -3.6 °C 1015.1 hPa Calm     76% 0 mm 0 W/m2
20:52 0.1 °C -3.4 °C 1015.1 hPa Calm     77% 0 mm 0 W/m2
20:58 -0.1 °C -3.6 °C 1015.5 hPa Calm     77% 0 mm 0 W/m2
21:03 -0.1 °C -3.5 °C 1015.5 hPa Calm   3.2 km/h 78% 0 mm 0 W/m2
21:09 0.1 °C -3.3 °C 1015.5 hPa Calm   1.6 km/h 78% 0 mm 0 W/m2
21:16 0.7 °C -2.7 °C 1015.5 hPa West 1.6 km/h 3.2 km/h 78% 0 mm 0 W/m2
21:22 1.1 °C -2.6 °C 1015.5 hPa West 1.6 km/h 3.2 km/h 77% 0 mm 0 W/m2
21:29 1.1 °C -2.8 °C 1015.8 hPa SW 1.6 km/h 1.6 km/h 75% 0 mm 0 W/m2
21:35 1.1 °C -2.8 °C 1015.5 hPa SW 1.6 km/h 3.2 km/h 75% 0 mm 0 W/m2
21:42 1.2 °C -2.8 °C 1015.5 hPa WSW 3.2 km/h 3.2 km/h 75% 0 mm 0 W/m2
21:48 1.2 °C -2.8 °C 1015.5 hPa WSW 3.2 km/h 3.2 km/h 75% 0 mm 0 W/m2
21:54 1.2 °C -2.8 °C 1015.5 hPa SW 3.2 km/h 3.2 km/h 75% 0 mm 0 W/m2
21:59 1.2 °C -2.8 °C 1015.5 hPa WSW 3.2 km/h 4.8 km/h 75% 0 mm 0 W/m2
22:05 1.2 °C -2.7 °C 1015.5 hPa SW 3.2 km/h 6.4 km/h 75% 0 mm 0 W/m2
22:12 1.2 °C -2.8 °C 1015.5 hPa WSW 3.2 km/h 3.2 km/h 75% 0 mm 0 W/m2
22:18 1.2 °C -2.8 °C 1015.5 hPa WSW 3.2 km/h 3.2 km/h 75% 0 mm 0 W/m2
22:24 1.2 °C -2.8 °C 1015.5 hPa WSW 1.6 km/h 3.2 km/h 75% 0 mm 0 W/m2
22:30 1.2 °C -2.8 °C 1015.5 hPa SW 3.2 km/h 3.2 km/h 75% 0 mm 0 W/m2
22:35 1.1 °C -2.8 °C 1015.5 hPa WSW 3.2 km/h 11.3 km/h 75% 0 mm 0 W/m2
22:42 1.2 °C -2.8 °C 1015.5 hPa WSW 4.8 km/h 4.8 km/h 75% 0 mm 0 W/m2
22:48 1.1 °C -2.9 °C 1015.5 hPa WSW 3.2 km/h 6.4 km/h 75% 0 mm 0 W/m2
22:54 0.9 °C -3 °C 1015.5 hPa WSW 1.6 km/h 3.2 km/h 75% 0 mm 0 W/m2
22:59 0.9 °C -2.9 °C 1015.5 hPa SW 1.6 km/h 1.6 km/h 76% 0 mm 0 W/m2
23:05 0.9 °C -2.9 °C 1015.5 hPa SW 3.2 km/h 3.2 km/h 76% 0 mm 0 W/m2
23:12 0.8 °C -2.9 °C 1015.5 hPa SW 3.2 km/h 4.8 km/h 76% 0 mm 0 W/m2
23:18 0.8 °C -2.9 °C 1015.5 hPa SW 3.2 km/h 4.8 km/h 76% 0 mm 0 W/m2
23:24 0.8 °C -3 °C 1015.8 hPa WSW 3.2 km/h 6.4 km/h 76% 0 mm 0 W/m2
23:29 0.8 °C -2.8 °C 1015.8 hPa WSW 1.6 km/h 1.6 km/h 77% 0 mm 0 W/m2
23:36 0.7 °C -3.1 °C 1015.8 hPa WSW 1.6 km/h 3.2 km/h 76% 0 mm 0 W/m2
23:42 0.7 °C -2.9 °C 1015.8 hPa WSW 1.6 km/h 1.6 km/h 77% 0 mm 0 W/m2
23:48 0.7 °C -2.8 °C 1016.1 hPa WSW 3.2 km/h 4.8 km/h 77% 0 mm 0 W/m2
23:53 0.8 °C -2.8 °C 1016.1 hPa WSW 1.6 km/h 3.2 km/h 77% 0 mm 0 W/m2
23:59 0.7 °C -2.8 °C 1016.1 hPa WSW 1.6 km/h 4.8 km/h 77% 0 mm 0 W/m2
Country Meadow, Clay, NY, USA
Compliments of Weather Underground - 2 mb